createdAt,value
2024-03-16T00:00:52.556Z,59.68
2024-03-16T00:03:20.663Z,59.91
2024-03-16T00:05:47.998Z,59.66
2024-03-16T00:08:15.364Z,59.93
2024-03-16T00:10:42.704Z,59.90
2024-03-16T00:13:10.105Z,59.90
2024-03-16T00:15:37.465Z,59.71
2024-03-16T00:18:04.977Z,60.00
2024-03-16T00:20:32.423Z,59.64
2024-03-16T00:22:59.817Z,59.65
2024-03-16T00:25:27.189Z,59.80
2024-03-16T00:27:54.616Z,59.97
2024-03-16T00:30:21.916Z,59.60
2024-03-16T00:32:49.302Z,59.90
2024-03-16T00:35:16.734Z,59.85
2024-03-16T00:37:44.063Z,60.02
2024-03-16T00:40:11.754Z,59.81
2024-03-16T00:42:39.103Z,59.78
2024-03-16T00:45:06.714Z,59.99
2024-03-16T00:47:34.110Z,59.40
2024-03-16T00:50:01.412Z,59.67
2024-03-16T00:52:28.951Z,59.72
2024-03-16T00:54:57.868Z,59.46
2024-03-16T00:57:25.214Z,59.39
2024-03-16T00:59:52.630Z,59.84
2024-03-16T01:02:19.920Z,59.84
2024-03-16T01:04:47.349Z,59.51
2024-03-16T01:07:16.344Z,59.90
2024-03-16T01:09:43.773Z,59.66
2024-03-16T01:12:11.160Z,60.08
2024-03-16T01:14:38.429Z,59.61
2024-03-16T01:17:05.879Z,59.65
2024-03-16T01:19:33.308Z,60.33
2024-03-16T01:22:00.639Z,59.94
2024-03-16T01:24:28.024Z,59.97
2024-03-16T01:26:55.400Z,59.99
2024-03-16T01:29:23.300Z,60.24
2024-03-16T01:31:50.576Z,59.79
2024-03-16T01:34:18.058Z,60.35
2024-03-16T01:36:45.390Z,60.00
2024-03-16T01:39:13.997Z,60.17
2024-03-16T01:41:44.129Z,60.44
2024-03-16T01:44:12.229Z,59.97
2024-03-16T01:46:40.796Z,59.63
2024-03-16T01:49:09.331Z,59.72
2024-03-16T01:51:37.543Z,59.78
2024-03-16T01:54:05.778Z,59.21
2024-03-16T01:56:33.417Z,59.30
2024-03-16T01:59:01.205Z,58.93
2024-03-16T02:01:29.270Z,59.12
2024-03-16T02:03:59.061Z,59.09
2024-03-16T02:06:28.454Z,59.06
2024-03-16T02:08:55.942Z,59.31
2024-03-16T02:11:23.604Z,59.25
2024-03-16T02:13:50.986Z,59.62
2024-03-16T02:16:18.777Z,58.85
2024-03-16T02:18:46.247Z,58.97
2024-03-16T02:21:13.602Z,58.90
2024-03-16T02:23:41.081Z,58.78
2024-03-16T02:26:12.556Z,59.12
2024-03-16T02:28:40.107Z,59.05
2024-03-16T02:31:07.725Z,58.85
2024-03-16T02:33:36.663Z,59.15
2024-03-16T02:36:05.225Z,59.31
2024-03-16T02:38:32.524Z,59.05
2024-03-16T02:40:59.899Z,59.25
2024-03-16T02:43:27.316Z,59.21
2024-03-16T02:45:54.684Z,59.19
2024-03-16T02:48:22.115Z,58.89
2024-03-16T02:50:49.368Z,58.85
2024-03-16T02:53:16.775Z,58.78
2024-03-16T02:55:44.115Z,59.18
2024-03-16T02:58:11.535Z,59.13
2024-03-16T03:00:39.049Z,59.39
2024-03-16T03:03:08.405Z,59.21
2024-03-16T03:05:35.822Z,59.27
2024-03-16T03:08:03.235Z,59.59
2024-03-16T03:10:30.574Z,59.63
2024-03-16T03:12:58.442Z,59.70
2024-03-16T03:15:25.828Z,59.18
2024-03-16T03:17:53.303Z,58.97
2024-03-16T03:20:22.356Z,59.30
2024-03-16T03:22:51.136Z,59.31
2024-03-16T03:25:20.214Z,59.40
2024-03-16T03:27:47.552Z,58.89
2024-03-16T03:30:14.847Z,59.28
2024-03-16T03:32:42.235Z,58.67
2024-03-16T03:35:09.634Z,59.39
2024-03-16T03:37:36.989Z,58.80
2024-03-16T03:40:06.063Z,58.79
2024-03-16T03:42:35.334Z,59.07
2024-03-16T03:45:26.165Z,59.02
2024-03-16T03:48:04.757Z,58.83
2024-03-16T03:50:34.365Z,58.83
2024-03-16T03:53:03.756Z,59.27
2024-03-16T03:55:31.463Z,58.68
2024-03-16T03:57:58.991Z,59.01
2024-03-16T04:00:26.402Z,58.66
2024-03-16T04:02:53.721Z,58.56
2024-03-16T04:05:21.206Z,58.80
2024-03-16T04:07:48.547Z,59.13
2024-03-16T04:10:15.857Z,58.43
2024-03-16T04:12:43.509Z,58.69
2024-03-16T04:15:10.863Z,58.28
2024-03-16T04:17:38.395Z,58.17
2024-03-16T04:20:13.839Z,58.35
2024-03-16T04:22:41.394Z,58.18
2024-03-16T04:25:10.676Z,58.44
2024-03-16T04:27:38.181Z,57.99
2024-03-16T04:30:08.898Z,57.87
2024-03-16T04:32:36.972Z,58.09
2024-03-16T04:35:05.907Z,58.20
2024-03-16T04:37:37.602Z,58.27
2024-03-16T04:40:06.215Z,57.89
2024-03-16T04:42:33.851Z,58.12
2024-03-16T04:45:01.253Z,58.46
2024-03-16T04:47:28.649Z,58.70
2024-03-16T04:49:55.961Z,58.05
2024-03-16T04:52:23.450Z,57.63
2024-03-16T04:54:50.802Z,57.64
2024-03-16T04:57:19.961Z,57.64
2024-03-16T04:59:47.482Z,57.59
2024-03-16T05:02:14.767Z,57.90
2024-03-16T05:04:42.168Z,57.54
2024-03-16T05:07:09.620Z,57.59
2024-03-16T05:09:38.260Z,57.35
2024-03-16T05:12:05.818Z,57.38
2024-03-16T05:14:33.150Z,57.57
2024-03-16T05:17:00.599Z,57.19
2024-03-16T05:19:27.928Z,57.81
2024-03-16T05:21:55.323Z,57.19
2024-03-16T05:24:22.954Z,57.22
2024-03-16T05:26:50.315Z,57.36
2024-03-16T05:29:17.608Z,57.11
2024-03-16T05:31:56.441Z,57.10
2024-03-16T05:34:23.790Z,56.92
2024-03-16T05:36:51.226Z,56.70
2024-03-16T05:39:18.964Z,57.25
2024-03-16T05:41:46.338Z,56.88
2024-03-16T05:44:13.715Z,57.06
2024-03-16T05:46:41.027Z,56.94
2024-03-16T05:49:08.390Z,56.51
2024-03-16T05:51:35.742Z,56.58
2024-03-16T05:54:05.529Z,56.69
2024-03-16T05:56:33.990Z,56.77
2024-03-16T05:59:01.467Z,56.74
2024-03-16T06:01:28.895Z,56.33
2024-03-16T06:03:56.757Z,56.30
2024-03-16T06:06:24.160Z,56.54
2024-03-16T06:08:51.582Z,56.47
2024-03-16T06:11:19.027Z,55.96
2024-03-16T06:13:46.581Z,56.20
2024-03-16T06:16:13.946Z,56.05
2024-03-16T06:18:48.357Z,55.94
2024-03-16T06:21:15.879Z,55.76
2024-03-16T06:23:43.878Z,55.77
2024-03-16T06:26:18.375Z,55.56
2024-03-16T06:28:48.474Z,55.82
2024-03-16T06:31:15.980Z,55.54
2024-03-16T06:33:46.931Z,55.44
2024-03-16T06:36:14.376Z,55.50
2024-03-16T06:38:43.501Z,55.48
2024-03-16T06:41:11.656Z,55.54
2024-03-16T06:43:39.830Z,55.12
2024-03-16T06:46:09.588Z,55.41
2024-03-16T06:48:36.905Z,55.27
2024-03-16T06:51:04.432Z,55.36
2024-03-16T06:53:32.300Z,54.96
2024-03-16T06:55:59.596Z,55.27
2024-03-16T06:58:27.090Z,54.95
2024-03-16T07:00:54.489Z,55.07
2024-03-16T07:03:21.848Z,55.05
2024-03-16T07:09:57.387Z,54.67
2024-03-16T07:12:39.870Z,54.77
2024-03-16T07:15:09.289Z,55.07
2024-03-16T07:17:36.755Z,54.91
2024-03-16T07:20:04.275Z,54.37
2024-03-16T07:22:32.071Z,54.31
2024-03-16T07:24:59.456Z,54.27
2024-03-16T07:27:27.129Z,54.01
2024-03-16T07:29:54.380Z,54.23
2024-03-16T07:32:21.914Z,53.78
2024-03-16T07:34:49.695Z,53.81
2024-03-16T07:37:18.102Z,54.07
2024-03-16T07:39:45.553Z,53.78
2024-03-16T07:42:12.920Z,53.80
2024-03-16T07:44:42.037Z,53.57
2024-03-16T07:47:09.733Z,53.54
2024-03-16T07:49:37.041Z,52.80
2024-03-16T07:52:05.148Z,52.40
2024-03-16T07:54:32.629Z,52.21
2024-03-16T07:57:00.187Z,51.11
2024-03-16T07:59:27.601Z,50.63
2024-03-16T08:01:55.159Z,50.51
2024-03-16T08:04:22.623Z,49.15
2024-03-16T08:06:50.108Z,48.21
2024-03-16T08:09:17.619Z,47.57
2024-03-16T08:11:44.923Z,46.73
2024-03-16T08:14:12.700Z,45.53
2024-03-16T08:16:40.052Z,42.37
2024-03-16T08:19:07.535Z,42.72
2024-03-16T08:21:34.995Z,40.53
2024-03-16T08:24:02.586Z,40.57
2024-03-16T08:26:29.931Z,40.52
2024-03-16T08:28:57.275Z,41.16
2024-03-16T08:31:24.799Z,37.99
2024-03-16T08:33:52.188Z,39.84
2024-03-16T08:36:19.538Z,37.70
2024-03-16T08:38:47.066Z,36.04
2024-03-16T08:41:14.766Z,35.69
2024-03-16T08:43:42.054Z,32.66
2024-03-16T08:46:09.491Z,34.06
2024-03-16T08:48:36.883Z,31.03
2024-03-16T08:51:05.913Z,32.70
2024-03-16T08:53:33.442Z,35.72
2024-03-16T08:56:02.645Z,35.28
2024-03-16T08:58:30.952Z,35.52
2024-03-16T09:00:59.978Z,35.26
2024-03-16T09:03:27.905Z,36.78
2024-03-16T09:05:55.542Z,37.60
2024-03-16T09:08:22.876Z,36.25
2024-03-16T09:10:50.220Z,34.13
2024-03-16T09:13:17.552Z,33.57
2024-03-16T09:15:45.239Z,31.36
2024-03-16T09:18:13.377Z,30.88
2024-03-16T09:20:45.089Z,30.84
2024-03-16T09:23:14.944Z,30.89
2024-03-16T09:25:44.440Z,30.85
2024-03-16T09:28:15.039Z,28.26
2024-03-16T09:30:46.591Z,29.73
2024-03-16T09:33:14.233Z,30.63
2024-03-16T09:35:43.299Z,30.87
2024-03-16T09:38:11.486Z,30.40
2024-03-16T09:40:44.926Z,28.41
